createdAt,value
2023-04-29T00:00:18.164Z,7.57
2023-04-29T00:03:43.784Z,7.22
2023-04-29T00:06:49.662Z,7.45
2023-04-29T00:09:54.844Z,8.55
2023-04-29T00:13:00.286Z,7.95
2023-04-29T00:16:08.974Z,8.15
2023-04-29T00:19:15.287Z,9.02
2023-04-29T00:22:22.236Z,8.48
2023-04-29T00:25:30.563Z,9.68
2023-04-29T00:28:35.659Z,9.45
2023-04-29T00:31:43.538Z,9.90
2023-04-29T00:34:48.830Z,9.10
2023-04-29T00:37:54.279Z,10.55
2023-04-29T00:41:02.212Z,10.98
2023-04-29T00:44:08.665Z,10.13
2023-04-29T00:47:16.844Z,9.65
2023-04-29T00:50:22.545Z,10.45
2023-04-29T00:53:31.812Z,10.77
2023-04-29T00:56:38.621Z,11.30
2023-04-29T00:59:43.857Z,10.20
2023-04-29T01:02:52.956Z,11.02
2023-04-29T01:06:05.897Z,12.40
2023-04-29T01:09:20.614Z,11.25
2023-04-29T01:12:31.704Z,11.88
2023-04-29T01:15:41.869Z,11.10
2023-04-29T01:18:51.779Z,11.32
2023-04-29T01:21:57.090Z,12.13
2023-04-29T01:25:05.269Z,12.63
2023-04-29T01:28:17.541Z,10.63
2023-04-29T01:31:24.880Z,12.00
2023-04-29T01:34:34.077Z,12.02
2023-04-29T01:37:42.444Z,11.73
2023-04-29T01:40:57.059Z,10.85
2023-04-29T01:44:04.240Z,10.48
2023-04-29T01:47:10.380Z,11.45
2023-04-29T01:50:15.623Z,10.93
2023-04-29T01:53:21.069Z,10.85
2023-04-29T01:56:31.536Z,11.55
2023-04-29T01:59:37.694Z,11.43
2023-04-29T02:02:43.310Z,11.27
2023-04-29T02:05:52.165Z,11.07
2023-04-29T02:08:57.914Z,11.45
2023-04-29T02:12:07.815Z,11.25
2023-04-29T02:15:16.399Z,10.55
2023-04-29T02:18:26.223Z,12.35
2023-04-29T02:21:35.456Z,11.32
2023-04-29T02:24:42.003Z,11.52
2023-04-29T02:27:50.311Z,10.43
2023-04-29T02:30:56.046Z,11.68
2023-04-29T02:34:04.564Z,10.85
2023-04-29T02:37:11.548Z,11.45
2023-04-29T02:40:17.268Z,12.38
2023-04-29T02:43:28.440Z,12.77
2023-04-29T02:46:38.068Z,12.68
2023-04-29T02:49:47.239Z,11.93
2023-04-29T02:52:54.176Z,11.65
2023-04-29T02:55:59.670Z,11.73
2023-04-29T02:59:08.041Z,11.10
2023-04-29T03:02:15.281Z,11.43
2023-04-29T03:05:21.086Z,12.90
2023-04-29T03:08:28.116Z,10.90
2023-04-29T03:11:33.436Z,11.77
2023-04-29T03:14:41.965Z,11.35
2023-04-29T03:17:48.746Z,11.43
2023-04-29T03:20:54.135Z,11.20
2023-04-29T03:23:59.859Z,11.15
2023-04-29T03:27:07.475Z,10.68
2023-04-29T03:30:16.822Z,11.80
2023-04-29T03:33:22.694Z,10.50
2023-04-29T03:36:28.180Z,10.57
2023-04-29T03:39:33.881Z,11.65
2023-04-29T03:42:41.088Z,11.40
2023-04-29T03:45:49.460Z,10.50
2023-04-29T03:48:59.056Z,10.70
2023-04-29T03:52:05.040Z,11.98
2023-04-29T03:55:11.434Z,11.15
2023-04-29T03:58:17.323Z,11.02
2023-04-29T04:01:26.847Z,10.70
2023-04-29T04:04:32.455Z,10.75
2023-04-29T04:07:37.803Z,10.30
2023-04-29T04:10:44.494Z,10.50
2023-04-29T04:13:50.083Z,10.20
2023-04-29T04:16:58.171Z,10.02
2023-04-29T04:20:03.157Z,9.82
2023-04-29T04:23:10.561Z,9.75
2023-04-29T04:26:16.171Z,9.75
2023-04-29T04:29:31.398Z,10.50
2023-04-29T04:32:39.568Z,9.73
2023-04-29T04:35:45.223Z,9.48
2023-04-29T04:38:50.219Z,10.38
2023-04-29T04:41:56.215Z,10.27
2023-04-29T04:45:03.983Z,9.93
2023-04-29T04:48:13.625Z,9.50
2023-04-29T04:51:20.063Z,9.93
2023-04-29T04:54:30.199Z,9.48
2023-04-29T04:57:35.171Z,9.63
2023-04-29T05:00:40.930Z,10.50
2023-04-29T05:03:50.682Z,9.30
2023-04-29T05:06:56.635Z,9.80
2023-04-29T05:10:01.750Z,10.05
2023-04-29T05:13:10.990Z,8.55
2023-04-29T05:16:18.241Z,9.45
2023-04-29T05:19:31.022Z,10.77
2023-04-29T05:22:38.133Z,9.95
2023-04-29T05:25:43.784Z,8.77
2023-04-29T05:28:52.894Z,9.10
2023-04-29T05:31:58.429Z,9.25
2023-04-29T05:35:07.748Z,8.75
2023-04-29T05:38:13.568Z,10.13
2023-04-29T05:41:24.498Z,8.50
2023-04-29T05:44:30.632Z,8.75
2023-04-29T05:47:35.701Z,9.32
2023-04-29T05:50:43.940Z,8.73
2023-04-29T05:53:51.448Z,10.15
2023-04-29T05:56:58.644Z,9.10
2023-04-29T06:00:07.150Z,9.30
2023-04-29T06:03:17.379Z,9.13
2023-04-29T06:06:25.331Z,9.00
2023-04-29T06:09:33.551Z,8.98
2023-04-29T06:12:39.182Z,8.68
2023-04-29T06:15:48.137Z,9.32
2023-04-29T06:18:53.349Z,9.27
2023-04-29T06:22:03.006Z,9.38
2023-04-29T06:25:09.954Z,9.20
2023-04-29T06:28:15.697Z,9.40
2023-04-29T06:31:23.344Z,9.07
2023-04-29T06:34:29.747Z,9.70
2023-04-29T06:37:39.792Z,9.43
2023-04-29T06:40:46.413Z,9.95
2023-04-29T06:43:51.505Z,9.90
2023-04-29T06:46:56.866Z,9.23
2023-04-29T06:50:09.524Z,9.55
2023-04-29T06:53:19.500Z,10.00
2023-04-29T06:56:25.101Z,9.77
2023-04-29T06:59:30.493Z,9.52
2023-04-29T07:02:39.418Z,9.68
2023-04-29T07:05:45.847Z,10.00
2023-04-29T07:08:56.348Z,9.85
2023-04-29T07:12:05.401Z,10.27
2023-04-29T07:15:11.032Z,10.30
2023-04-29T07:18:18.381Z,9.85
2023-04-29T07:21:24.445Z,9.25
2023-04-29T07:24:32.559Z,11.00
2023-04-29T07:27:39.769Z,10.48
2023-04-29T07:30:50.178Z,9.57
2023-04-29T07:33:55.144Z,10.23
2023-04-29T07:37:00.915Z,10.63
2023-04-29T07:40:10.627Z,10.27
2023-04-29T07:43:16.198Z,10.60
2023-04-29T07:46:21.273Z,10.45
2023-04-29T07:49:27.579Z,10.73
2023-04-29T07:52:33.830Z,11.20
2023-04-29T07:55:47.039Z,10.00
2023-04-29T07:58:54.796Z,10.57
2023-04-29T08:02:00.657Z,11.07
2023-04-29T08:05:05.925Z,11.50
2023-04-29T08:08:13.118Z,11.32
2023-04-29T08:11:24.787Z,10.93
2023-04-29T08:14:33.059Z,10.88
2023-04-29T08:17:41.168Z,10.82
2023-04-29T08:20:46.518Z,10.93
2023-04-29T08:23:51.947Z,11.02
2023-04-29T08:27:00.532Z,10.65
2023-04-29T08:30:05.508Z,10.68
2023-04-29T08:33:14.300Z,11.30
2023-04-29T08:36:19.291Z,10.65
2023-04-29T08:39:25.577Z,11.48
2023-04-29T08:42:36.540Z,11.48
2023-04-29T08:45:46.096Z,11.02
2023-04-29T08:48:51.635Z,11.70
2023-04-29T08:51:56.968Z,12.05
2023-04-29T08:55:03.909Z,11.32
2023-04-29T08:58:12.906Z,11.15
2023-04-29T09:01:18.559Z,11.77
2023-04-29T09:04:35.571Z,10.85
2023-04-29T09:07:47.437Z,10.93
2023-04-29T09:10:57.317Z,10.73
2023-04-29T09:14:06.401Z,11.00
2023-04-29T09:17:12.081Z,10.95
2023-04-29T09:20:32.702Z,10.55
2023-04-29T09:23:40.231Z,11.27
2023-04-29T09:26:45.929Z,12.93
2023-04-29T09:30:03.089Z,13.13
2023-04-29T09:33:09.493Z,12.68
2023-04-29T09:36:18.179Z,12.57
2023-04-29T09:39:23.705Z,12.30
2023-04-29T09:42:29.801Z,12.95
2023-04-29T09:45:42.126Z,12.65
2023-04-29T09:48:48.733Z,13.23
2023-04-29T09:51:58.898Z,13.57
2023-04-29T09:55:08.394Z,13.10
2023-04-29T09:58:32.952Z,12.88
2023-04-29T10:01:42.247Z,12.27
2023-04-29T10:04:49.966Z,12.40
2023-04-29T10:07:55.349Z,11.85
2023-04-29T10:11:02.553Z,11.70
2023-04-29T10:14:10.870Z,12.65
2023-04-29T10:17:27.925Z,11.43
2023-04-29T10:20:33.743Z,12.60
2023-04-29T10:23:41.615Z,12.02
2023-04-29T10:26:47.330Z,12.77
2023-04-29T10:29:53.598Z,12.57
2023-04-29T10:33:05.136Z,12.13
2023-04-29T10:36:11.030Z,11.75
2023-04-29T10:39:21.011Z,11.45
2023-04-29T10:42:33.247Z,12.38
2023-04-29T10:45:41.019Z,11.60
2023-04-29T10:48:49.794Z,12.57
2023-04-29T10:51:55.184Z,12.32
2023-04-29T10:55:07.584Z,12.10
2023-04-29T10:58:37.201Z,11.73
2023-04-29T11:01:46.524Z,12.82
2023-04-29T11:05:09.763Z,11.65
2023-04-29T11:08:23.475Z,12.07
2023-04-29T11:11:29.438Z,12.43
2023-04-29T11:14:39.378Z,12.13
2023-04-29T11:17:44.541Z,11.13
2023-04-29T11:21:14.222Z,12.95
2023-04-29T11:24:22.956Z,12.10
2023-04-29T11:27:29.835Z,12.65
2023-04-29T11:30:37.347Z,12.52
2023-04-29T11:33:42.466Z,11.98
2023-04-29T11:36:47.966Z,12.93
2023-04-29T11:40:06.828Z,13.05
2023-04-29T11:43:14.170Z,12.10
2023-04-29T11:46:22.751Z,12.60
2023-04-29T11:49:33.269Z,12.68
2023-04-29T11:52:39.370Z,12.98
2023-04-29T11:55:48.416Z,11.88
2023-04-29T11:58:54.624Z,12.45
2023-04-29T12:02:03.316Z,12.80
2023-04-29T12:05:10.244Z,11.80
2023-04-29T12:08:15.805Z,12.85
2023-04-29T12:11:25.236Z,12.90
2023-04-29T12:14:30.627Z,13.55
2023-04-29T12:17:36.017Z,12.77
2023-04-29T12:20:42.046Z,12.07
2023-04-29T12:23:46.997Z,12.40
2023-04-29T12:26:56.002Z,12.05
2023-04-29T12:30:01.610Z,11.40
2023-04-29T12:33:07.866Z,12.18
2023-04-29T12:36:19.560Z,11.73
2023-04-29T12:39:25.230Z,11.88
2023-04-29T12:42:37.794Z,11.20
2023-04-29T12:45:44.499Z,12.27
2023-04-29T12:48:50.465Z,12.10
2023-04-29T12:51:59.795Z,10.90
2023-04-29T12:55:07.835Z,11.20
2023-04-29T12:58:16.033Z,11.80
2023-04-29T13:01:24.094Z,11.18
2023-04-29T13:04:33.376Z,10.45
2023-04-29T13:07:38.549Z,10.85
2023-04-29T13:10:44.253Z,10.95
2023-04-29T13:13:52.700Z,10.82
2023-04-29T13:16:58.490Z,10.70
2023-04-29T13:20:03.564Z,10.60
2023-04-29T13:23:12.360Z,11.88
2023-04-29T13:26:18.639Z,10.30
2023-04-29T13:29:29.327Z,10.60
2023-04-29T13:32:43.969Z,10.75
2023-04-29T13:35:57.188Z,10.82
2023-04-29T13:39:05.291Z,11.18
2023-04-29T13:42:15.464Z,11.48
2023-04-29T13:45:29.099Z,10.32
2023-04-29T13:49:11.150Z,10.82
2023-04-29T13:56:11.553Z,10.52
2023-04-29T13:59:31.649Z,10.07
2023-04-29T14:02:25.078Z,10.25
2023-04-29T14:05:40.320Z,10.02
2023-04-29T14:08:46.351Z,10.25
2023-04-29T14:11:52.586Z,8.93
2023-04-29T14:15:00.858Z,9.27
2023-04-29T14:18:13.039Z,9.07
2023-04-29T14:21:22.705Z,9.38
2023-04-29T14:24:28.254Z,9.45
2023-04-29T14:27:38.755Z,8.88
2023-04-29T14:30:47.097Z,8.77
2023-04-29T14:33:57.817Z,8.27
2023-04-29T14:37:04.475Z,8.52
2023-04-29T14:40:12.969Z,8.43
2023-04-29T14:43:20.586Z,8.45
2023-04-29T14:46:26.766Z,8.95
2023-04-29T14:49:36.998Z,9.88
2023-04-29T14:52:45.825Z,9.98
2023-04-29T14:55:53.774Z,10.50
2023-04-29T14:59:02.090Z,10.32
2023-04-29T15:02:10.406Z,11.30
2023-04-29T15:05:18.982Z,11.05
2023-04-29T15:08:27.239Z,10.32
2023-04-29T15:11:33.204Z,9.32
2023-04-29T15:14:38.200Z,9.02
2023-04-29T15:17:44.104Z,10.02
2023-04-29T15:20:54.073Z,10.07
2023-04-29T15:24:02.956Z,9.93
2023-04-29T15:27:09.419Z,9.73
2023-04-29T15:30:16.898Z,8.88
2023-04-29T15:33:22.075Z,8.68
2023-04-29T15:36:37.488Z,8.00
2023-04-29T15:39:42.491Z,6.90
2023-04-29T15:42:48.174Z,5.70
2023-04-29T15:45:57.572Z,5.85
2023-04-29T15:49:04.923Z,6.78
2023-04-29T15:52:15.298Z,5.72
2023-04-29T15:55:21.306Z,6.20
2023-04-29T15:58:30.972Z,6.57
2023-04-29T16:01:37.192Z,6.88
2023-04-29T16:04:42.252Z,7.00
2023-04-29T16:07:50.275Z,6.90
2023-04-29T16:10:57.103Z,4.93
2023-04-29T16:14:03.180Z,5.70
2023-04-29T16:17:08.633Z,5.80
2023-04-29T16:20:18.595Z,5.57
2023-04-29T16:23:26.767Z,5.22
2023-04-29T16:26:32.509Z,5.55
2023-04-29T16:29:37.844Z,5.63
2023-04-29T16:32:46.246Z,5.70
2023-04-29T16:35:54.134Z,5.97
2023-04-29T16:39:04.364Z,6.25
2023-04-29T16:42:12.290Z,7.05
2023-04-29T16:45:18.512Z,5.55
2023-04-29T16:48:30.848Z,5.63
2023-04-29T16:51:36.621Z,5.07
2023-04-29T16:54:48.652Z,4.78
2023-04-29T16:57:57.055Z,5.13
2023-04-29T17:01:04.604Z,4.45
2023-04-29T17:04:16.020Z,5.28
2023-04-29T17:07:22.153Z,5.95
2023-04-29T17:10:33.269Z,5.35
2023-04-29T17:13:38.565Z,5.07
2023-04-29T17:16:44.168Z,4.53
2023-04-29T17:19:51.957Z,4.03
2023-04-29T17:22:59.133Z,4.68
2023-04-29T17:26:07.694Z,4.78
2023-04-29T17:29:13.188Z,4.88
2023-04-29T17:32:18.266Z,4.65
2023-04-29T17:35:24.804Z,4.38
2023-04-29T17:38:30.313Z,4.72
2023-04-29T17:41:39.659Z,4.95
2023-04-29T17:44:46.390Z,3.55
2023-04-29T17:47:54.641Z,4.55
2023-04-29T17:51:01.548Z,4.75
2023-04-29T17:54:16.212Z,4.63
2023-04-29T17:57:28.875Z,5.15
2023-04-29T18:00:35.259Z,6.10
2023-04-29T18:03:47.684Z,5.88
2023-04-29T18:06:57.390Z,6.07
2023-04-29T18:10:02.697Z,5.75
2023-04-29T18:13:10.954Z,5.13
2023-04-29T18:16:17.118Z,5.13
2023-04-29T18:19:22.448Z,4.60
2023-04-29T18:22:27.859Z,5.72
2023-04-29T18:25:39.985Z,4.90
2023-04-29T18:28:49.324Z,4.50
2023-04-29T18:31:55.641Z,5.07
2023-04-29T18:35:00.951Z,5.55
2023-04-29T18:38:10.942Z,5.43
2023-04-29T18:41:18.908Z,5.47
2023-04-29T18:44:27.982Z,6.25
2023-04-29T18:47:33.174Z,6.55
2023-04-29T18:50:41.383Z,6.85
2023-04-29T18:53:47.966Z,6.85
2023-04-29T18:56:55.059Z,5.13
2023-04-29T19:00:07.962Z,6.45
2023-04-29T19:03:13.412Z,6.38
2023-04-29T19:06:19.197Z,5.93
2023-04-29T19:09:25.052Z,6.88
2023-04-29T19:12:30.446Z,7.82
2023-04-29T19:15:39.880Z,7.57
2023-04-29T19:18:46.258Z,6.53
2023-04-29T19:21:52.568Z,7.65
2023-04-29T19:24:59.039Z,7.50
2023-04-29T19:28:13.484Z,7.55
2023-04-29T19:31:21.819Z,8.00
2023-04-29T19:34:27.217Z,8.15
2023-04-29T19:37:32.203Z,7.45
2023-04-29T19:40:37.960Z,8.32
2023-04-29T19:43:44.063Z,8.02
2023-04-29T19:46:53.694Z,7.20
2023-04-29T19:50:01.826Z,7.75
2023-04-29T19:53:08.065Z,7.88
2023-04-29T19:56:13.341Z,7.88
2023-04-29T19:59:22.552Z,8.13
2023-04-29T20:02:33.730Z,7.32
2023-04-29T20:05:42.630Z,6.88
2023-04-29T20:08:47.644Z,7.55
2023-04-29T20:11:58.517Z,8.02
2023-04-29T20:15:08.354Z,6.90
2023-04-29T20:18:23.767Z,7.75
2023-04-29T20:21:32.998Z,8.02
2023-04-29T20:24:39.665Z,6.97
2023-04-29T20:27:44.711Z,7.60
2023-04-29T20:30:52.697Z,6.70
2023-04-29T20:34:00.565Z,6.28
2023-04-29T20:37:10.978Z,6.93
2023-04-29T20:40:20.647Z,6.47
2023-04-29T20:43:26.208Z,6.95
2023-04-29T20:46:33.732Z,5.40
2023-04-29T20:49:44.106Z,7.28
2023-04-29T20:52:51.163Z,5.30
2023-04-29T20:56:03.662Z,5.40
2023-04-29T20:59:08.629Z,5.60
2023-04-29T21:02:14.733Z,5.50
2023-04-29T21:05:22.530Z,5.50
2023-04-29T21:08:28.195Z,4.82
2023-04-29T21:11:40.667Z,4.80
2023-04-29T21:14:46.062Z,4.63
2023-04-29T21:17:54.063Z,4.50
2023-04-29T21:21:02.156Z,5.60
2023-04-29T21:24:09.166Z,5.43
2023-04-29T21:27:18.379Z,5.07
2023-04-29T21:30:26.239Z,4.68
2023-04-29T21:33:31.856Z,3.83
2023-04-29T21:36:39.497Z,4.18
2023-04-29T21:39:49.958Z,3.88
2023-04-29T21:42:55.479Z,4.40
2023-04-29T21:46:02.054Z,4.50
2023-04-29T21:49:07.691Z,4.43
2023-04-29T21:52:17.144Z,4.07
2023-04-29T21:55:22.151Z,3.78
2023-04-29T21:58:27.494Z,3.50
2023-04-29T22:01:48.748Z,3.53
2023-04-29T22:04:54.827Z,3.35
2023-04-29T22:08:03.467Z,2.97
2023-04-29T22:11:09.204Z,3.05
2023-04-29T22:14:14.272Z,3.17
2023-04-29T22:17:19.578Z,1.83
2023-04-29T22:20:25.002Z,3.03
2023-04-29T22:23:33.072Z,2.40
2023-04-29T22:26:40.107Z,2.17
2023-04-29T22:29:49.597Z,2.35
2023-04-29T22:32:55.241Z,2.33
2023-04-29T22:36:00.622Z,1.75
2023-04-29T22:39:08.461Z,1.85
2023-04-29T22:42:14.491Z,2.58
2023-04-29T22:45:19.559Z,2.78
2023-04-29T22:48:27.460Z,2.75
2023-04-29T22:51:35.914Z,3.22
2023-04-29T22:54:45.029Z,2.25
2023-04-29T22:57:52.826Z,2.10
2023-04-29T23:01:01.687Z,1.80
2023-04-29T23:04:07.474Z,2.17
2023-04-29T23:07:13.907Z,1.83
2023-04-29T23:10:31.211Z,1.92
2023-04-29T23:13:36.629Z,2.10
2023-04-29T23:16:41.780Z,2.28
2023-04-29T23:19:47.690Z,2.05
2023-04-29T23:22:56.249Z,2.08
2023-04-29T23:26:04.280Z,2.03
2023-04-29T23:29:09.254Z,2.40
2023-04-29T23:32:19.740Z,2.35
2023-04-29T23:35:24.736Z,1.95
2023-04-29T23:38:30.071Z,2.00
2023-04-29T23:41:37.650Z,1.75
2023-04-29T23:44:43.080Z,1.77
2023-04-29T23:47:48.112Z,1.88
2023-04-29T23:50:55.885Z,2.38
2023-04-29T23:54:01.099Z,2.17
2023-04-29T23:57:09.095Z,1.80
